createdAt,value
2022-08-05T00:04:08.788Z,79.6
2022-08-05T00:09:48.414Z,79.7
2022-08-05T00:16:00.399Z,79.7
2022-08-05T00:21:36.361Z,79.7
2022-08-05T00:27:17.046Z,79.7
2022-08-05T00:32:54.057Z,79.7
2022-08-05T00:38:34.437Z,79.8
2022-08-05T00:44:09.231Z,79.9
2022-08-05T00:49:52.131Z,79.9
2022-08-05T00:55:43.701Z,80.1
2022-08-05T01:01:48.785Z,80.1
2022-08-05T01:07:36.501Z,80.1
2022-08-05T01:14:28.709Z,80.1
2022-08-05T01:20:05.256Z,80.2
2022-08-05T01:26:02.405Z,80.2
2022-08-05T01:31:45.328Z,80.3
2022-08-05T01:37:25.677Z,80.3
2022-08-05T01:43:03.994Z,80.3
2022-08-05T01:48:41.609Z,80.2
2022-08-05T01:54:27.829Z,80.3
2022-08-05T02:00:02.579Z,80.3
2022-08-05T02:05:42.759Z,80.3
2022-08-05T02:11:24.128Z,80.3
2022-08-05T02:18:34.734Z,80.2
2022-08-05T02:24:18.425Z,80.3
2022-08-05T02:30:00.809Z,80.3
2022-08-05T02:35:51.078Z,80.2
2022-08-05T02:42:01.537Z,80.3
2022-08-05T02:48:12.922Z,80.3
2022-08-05T02:53:55.300Z,80.1
2022-08-05T02:59:51.996Z,80.2
2022-08-05T03:06:59.454Z,80.2
2022-08-05T03:12:36.525Z,80.1
2022-08-05T03:18:42.371Z,80
2022-08-05T03:24:30.941Z,80.1
2022-08-05T03:30:10.724Z,80
2022-08-05T03:35:45.433Z,80
2022-08-05T03:41:23.901Z,79.9
2022-08-05T03:47:23.189Z,79.9
2022-08-05T03:56:06.385Z,79.9
2022-08-05T04:02:45.144Z,79.7
2022-08-05T04:08:37.327Z,79.7
2022-08-05T04:14:18.350Z,79.7
2022-08-05T04:20:10.988Z,79.7
2022-08-05T04:26:01.204Z,80
2022-08-05T04:31:39.741Z,80.2
2022-08-05T04:37:17.050Z,80.4
2022-08-05T04:42:52.977Z,80.5
2022-08-05T04:48:28.900Z,80.7
2022-08-05T04:54:03.698Z,80.7
2022-08-05T04:59:41.076Z,80.9
2022-08-05T05:05:28.516Z,80.9
2022-08-05T05:11:08.286Z,80.9
2022-08-05T05:17:09.965Z,81
2022-08-05T05:22:44.515Z,81.1
2022-08-05T05:28:21.217Z,81
2022-08-05T05:34:02.920Z,81.1
2022-08-05T05:39:38.052Z,81.2
2022-08-05T05:45:21.275Z,81.2
2022-08-05T05:50:56.617Z,81.2
2022-08-05T05:56:34.900Z,81.3
2022-08-05T06:02:11.386Z,81.5
2022-08-05T06:08:01.922Z,81.5
2022-08-05T06:13:54.304Z,81.6
2022-08-05T06:19:59.956Z,81.7
2022-08-05T06:26:21.160Z,81.8
2022-08-05T06:32:28.755Z,81.8
2022-08-05T06:38:12.120Z,82.7
2022-08-05T06:44:00.561Z,83.8
2022-08-05T06:50:05.198Z,84.3
2022-08-05T06:55:42.339Z,85
2022-08-05T07:01:23.056Z,84.7
2022-08-05T07:07:08.573Z,85
2022-08-05T07:12:49.374Z,85.2
2022-08-05T07:18:30.842Z,85.3
2022-08-05T07:24:11.936Z,84.8
2022-08-05T07:30:31.757Z,84.5
2022-08-05T07:36:22.167Z,84
2022-08-05T07:42:15.541Z,84.8
2022-08-05T07:48:13.648Z,82.4
2022-08-05T07:54:49.628Z,82.2
2022-08-05T08:00:29.713Z,81.2
2022-08-05T08:06:10.398Z,80.5
2022-08-05T08:11:59.055Z,79.4
2022-08-05T08:18:24.921Z,77.7
2022-08-05T08:24:08.522Z,76.6
2022-08-05T08:30:27.720Z,77.4
2022-08-05T08:36:47.426Z,74.8
2022-08-05T08:42:53.159Z,73.4
2022-08-05T08:52:06.270Z,71
2022-08-05T08:57:58.709Z,72.9
2022-08-05T09:03:45.849Z,76.1
2022-08-05T09:09:36.061Z,76.3
2022-08-05T09:15:15.510Z,77.4
2022-08-05T09:20:51.328Z,77.2
2022-08-05T09:26:32.594Z,77.9
2022-08-05T09:32:52.549Z,75.7
2022-08-05T09:38:32.700Z,74
2022-08-05T09:44:11.742Z,73.1
2022-08-05T09:50:03.335Z,73
2022-08-05T09:56:03.861Z,72.6
2022-08-05T10:01:58.559Z,70.6
2022-08-05T10:08:38.086Z,71.3
2022-08-05T10:14:27.114Z,69.5
2022-08-05T10:20:12.020Z,69.5
2022-08-05T10:25:56.387Z,68.7
2022-08-05T10:33:01.603Z,68.7
2022-08-05T10:38:50.949Z,70.6
2022-08-05T10:44:27.635Z,69.5
2022-08-05T10:50:36.954Z,71.2
2022-08-05T10:56:26.321Z,72.5
2022-08-05T11:02:05.620Z,66.3
2022-08-05T11:08:27.606Z,69.1
2022-08-05T11:14:17.011Z,67.4
2022-08-05T11:20:18.831Z,67.4
2022-08-05T11:26:09.517Z,68.5
2022-08-05T11:32:11.093Z,69.3
2022-08-05T11:38:36.535Z,69.1
2022-08-05T11:44:54.391Z,63.8
2022-08-05T11:50:31.810Z,67
2022-08-05T11:56:17.728Z,64.3
2022-08-05T12:02:32.764Z,62.4
2022-08-05T12:08:25.796Z,63.9
2022-08-05T12:14:04.694Z,64
2022-08-05T12:20:30.749Z,61.7
2022-08-05T12:26:11.350Z,62.2
2022-08-05T12:31:54.438Z,62.6
2022-08-05T12:37:32.359Z,61.1
2022-08-05T12:43:21.337Z,61.1
2022-08-05T12:49:14.184Z,62.9
2022-08-05T12:55:00.450Z,61.8
2022-08-05T13:02:07.293Z,60.9
2022-08-05T13:08:04.602Z,59.4
2022-08-05T13:14:07.797Z,58.3
2022-08-05T13:19:53.986Z,57.3
2022-08-05T13:26:01.091Z,56.5
2022-08-05T13:32:05.541Z,53.8
2022-08-05T13:37:55.931Z,52.2
2022-08-05T13:43:55.316Z,54.5
2022-08-05T13:49:35.581Z,52
2022-08-05T13:55:10.652Z,54
2022-08-05T14:01:57.100Z,53.4
2022-08-05T14:08:11.391Z,57.1
2022-08-05T14:14:12.605Z,57.8
2022-08-05T14:20:08.682Z,58.2
2022-08-05T14:26:06.403Z,58.1
2022-08-05T14:32:28.451Z,58.8
2022-08-05T14:38:05.638Z,59.3
2022-08-05T14:44:21.879Z,59.5
2022-08-05T14:50:19.207Z,60.2
2022-08-05T14:55:55.715Z,60
2022-08-05T15:01:49.996Z,60.4
2022-08-05T15:08:38.162Z,60.5
2022-08-05T15:14:50.721Z,58.9
2022-08-05T15:20:30.785Z,59.3
2022-08-05T15:26:07.437Z,60
2022-08-05T15:31:45.430Z,60.8
2022-08-05T15:38:41.133Z,61.5
2022-08-05T15:44:20.982Z,62.3
2022-08-05T15:49:59.793Z,62.9
2022-08-05T15:56:05.013Z,62.5
2022-08-05T16:01:54.075Z,61.3
2022-08-05T16:07:36.893Z,61.2
2022-08-05T16:13:11.946Z,60.1
2022-08-05T16:20:11.901Z,59.5
2022-08-05T16:25:48.078Z,59.5
2022-08-05T16:31:57.958Z,59.4
2022-08-05T16:38:24.904Z,58.7
2022-08-05T16:44:04.495Z,59
2022-08-05T16:49:41.499Z,59.8
2022-08-05T16:55:20.359Z,60.3
2022-08-05T17:01:00.206Z,61.2
2022-08-05T17:06:53.817Z,61.2
2022-08-05T17:12:52.455Z,58.2
2022-08-05T17:18:51.749Z,58.5
2022-08-05T17:24:39.033Z,59.7
2022-08-05T17:30:52.758Z,61
2022-08-05T17:36:38.683Z,61.8
2022-08-05T17:42:28.665Z,62.4
2022-08-05T17:48:25.056Z,61.7
2022-08-05T17:54:00.406Z,62.4
2022-08-05T17:59:36.491Z,64.8
2022-08-05T18:05:19.990Z,66.5
2022-08-05T18:10:57.560Z,67.2
2022-08-05T18:16:55.553Z,66.4
2022-08-05T18:22:54.363Z,65.8
2022-08-05T18:28:48.273Z,69.8
2022-08-05T18:34:40.987Z,68.6
2022-08-05T18:42:01.141Z,71.6
2022-08-05T18:47:56.977Z,73.8
2022-08-05T18:53:45.822Z,74
2022-08-05T19:00:04.218Z,74.5
2022-08-05T19:06:22.240Z,76.2
2022-08-05T19:12:21.059Z,74.8
2022-08-05T19:18:22.934Z,74.8
2022-08-05T19:24:12.884Z,75.1
2022-08-05T19:29:49.844Z,75.9
2022-08-05T19:35:57.692Z,76.9
2022-08-05T19:42:08.211Z,79.1
2022-08-05T19:47:56.125Z,78.8
2022-08-05T19:54:06.738Z,78.7
2022-08-05T20:00:07.481Z,77.8
2022-08-05T20:05:51.953Z,77.3
2022-08-05T20:11:37.894Z,77.8
2022-08-05T20:17:36.794Z,77.6
2022-08-05T20:23:12.876Z,79.7
2022-08-05T20:28:52.939Z,80
2022-08-05T20:34:31.333Z,79.4
2022-08-05T20:40:06.986Z,80.3
2022-08-05T20:45:57.682Z,81.1
2022-08-05T20:51:38.469Z,80.9
2022-08-05T20:57:44.581Z,80.1
2022-08-05T21:03:21.003Z,80.2
2022-08-05T21:08:55.669Z,80
2022-08-05T21:14:35.668Z,79.6
2022-08-05T21:20:12.307Z,78.7
2022-08-05T21:26:15.491Z,78.5
2022-08-05T21:31:53.710Z,78.1
2022-08-05T21:37:32.552Z,77.9
2022-08-05T21:43:25.096Z,78.9
2022-08-05T21:49:00.442Z,78.7
2022-08-05T21:56:05.144Z,78.2
2022-08-05T22:01:54.794Z,78.7
2022-08-05T22:07:58.601Z,78.5
2022-08-05T22:14:37.583Z,78.2
2022-08-05T22:20:25.715Z,78.6
2022-08-05T22:26:11.943Z,78.8
2022-08-05T22:32:03.019Z,78.8
2022-08-05T22:37:59.771Z,79
2022-08-05T22:43:38.356Z,78.6
2022-08-05T22:50:23.615Z,80
2022-08-05T22:56:10.060Z,79.6
2022-08-05T23:02:06.822Z,79.6
2022-08-05T23:07:50.664Z,79.3
2022-08-05T23:13:25.719Z,78.1
2022-08-05T23:19:26.265Z,77.5
2022-08-05T23:25:11.755Z,77.4
2022-08-05T23:31:30.466Z,77.2
2022-08-05T23:37:11.842Z,77.1
2022-08-05T23:42:54.071Z,77.1
2022-08-05T23:48:29.095Z,77
2022-08-05T23:54:04.706Z,77
